Time;durP1;ratioP1;P1;durP2;ratioP2;P2;SDS_P1;SDS_P2;PMS_P1;PMS_P2;Temp;Humidity;BMP_temperature;BMP_pressure;BME280_temperature;BME280_humidity;BME280_pressure;Samples;Min_cycle;Max_cycle;Signal;HPM_P1;HPM_P2
2022/12/08 00:01:02;;;;;;;9.25;8.55;;;9.90;84.10;;;;;;5013151;28;20041;-81
2022/12/08 00:03:28;;;;;;;9.27;8.48;;;9.90;84.10;;;;;;5032703;28;20037;-82
2022/12/08 00:11:21;;;;;;;9.85;9.13;;;9.80;84.30;;;;;;5017558;28;20629;-82
2022/12/08 00:13:47;;;;;;;9.10;8.40;;;9.80;84.30;;;;;;5015714;28;20045;-82
2022/12/08 00:16:12;;;;;;;9.63;8.82;;;9.80;84.40;;;;;;5015993;28;20053;-83
2022/12/08 00:18:38;;;;;;;9.20;8.50;;;9.80;84.30;;;;;;5017188;28;20041;-82
2022/12/08 00:21:03;;;;;;;9.38;8.68;;;9.80;84.40;;;;;;5015157;28;20022;-82
2022/12/08 00:23:29;;;;;;;9.02;8.43;;;9.80;84.50;;;;;;5016519;28;20025;-81
2022/12/08 00:25:55;;;;;;;9.90;9.20;;;9.80;84.50;;;;;;5015158;28;20029;-81
2022/12/08 00:28:20;;;;;;;9.32;8.63;;;9.80;84.50;;;;;;5014770;28;20030;-81
2022/12/08 00:30:46;;;;;;;9.40;8.70;;;9.80;84.50;;;;;;5010012;28;20122;-83
2022/12/08 00:33:11;;;;;;;9.57;8.88;;;9.80;84.50;;;;;;5011670;28;20493;-82
2022/12/08 00:35:37;;;;;;;9.63;8.85;;;9.80;84.50;;;;;;5014464;28;20029;-81
2022/12/08 00:38:03;;;;;;;9.63;8.90;;;9.80;84.50;;;;;;5014871;28;20029;-81
2022/12/08 00:40:28;;;;;;;9.98;9.27;;;9.80;84.50;;;;;;5014687;28;20021;-81
2022/12/08 00:42:54;;;;;;;9.40;8.70;;;9.80;84.50;;;;;;5014517;28;20600;-80
2022/12/08 00:45:19;;;;;;;9.55;8.85;;;9.80;84.50;;;;;;5012395;28;20014;-81
2022/12/08 00:47:45;;;;;;;9.80;9.10;;;9.80;84.50;;;;;;5012349;28;20022;-82
2022/12/08 00:50:10;;;;;;;9.05;8.35;;;9.80;84.60;;;;;;5014284;28;20041;-83
2022/12/08 00:52:36;;;;;;;9.60;8.90;;;9.80;84.50;;;;;;5000089;28;20438;-82
2022/12/08 00:55:02;;;;;;;9.82;9.02;;;9.80;84.60;;;;;;5014499;28;20069;-81
2022/12/08 00:57:28;;;;;;;9.38;8.68;;;9.80;84.60;;;;;;5014461;28;20042;-81
2022/12/08 00:59:53;;;;;;;9.05;8.35;;;9.80;84.60;;;;;;5015733;28;20036;-81
2022/12/08 01:02:19;;;;;;;9.63;8.93;;;9.80;84.60;;;;;;4998410;28;20036;-81
2022/12/08 01:04:45;;;;;;;10.20;9.40;;;9.80;84.60;;;;;;5016433;28;20550;-81
2022/12/08 01:07:10;;;;;;;9.75;9.05;;;9.80;84.60;;;;;;5015690;28;20537;-83
2022/12/08 01:09:36;;;;;;;10.02;9.32;;;9.80;84.60;;;;;;5012125;28;20025;-83
2022/12/08 01:12:01;;;;;;;10.88;10.07;;;9.80;84.60;;;;;;5008486;28;20405;-82
2022/12/08 01:14:27;;;;;;;9.68;8.98;;;9.80;85.10;;;;;;5033988;28;20037;-82
2022/12/08 01:16:52;;;;;;;9.20;8.50;;;9.80;84.60;;;;;;5021864;28;20030;-83
2022/12/08 01:19:18;;;;;;;9.30;8.52;;;9.80;84.60;;;;;;5022472;28;20033;-83
2022/12/08 01:21:44;;;;;;;9.15;8.55;;;9.80;84.60;;;;;;5007959;28;20121;-82
2022/12/08 01:24:16;;;;;;;9.77;9.07;;;9.80;84.60;;;;;;5003710;28;20038;-82
2022/12/08 01:26:42;;;;;;;9.68;8.88;;;9.80;84.60;;;;;;5015560;28;20022;-82
2022/12/08 01:29:08;;;;;;;9.95;9.25;;;9.80;84.60;;;;;;5022628;28;20026;-83
2022/12/08 01:31:33;;;;;;;9.52;8.82;;;9.80;84.60;;;;;;5021024;28;20033;-82
2022/12/08 01:33:59;;;;;;;9.30;8.60;;;9.80;84.70;;;;;;5036746;28;20022;-83
2022/12/08 01:36:27;;;;;;;9.45;8.75;;;9.80;84.60;;;;;;5020900;28;20030;-81
2022/12/08 01:38:55;;;;;;;10.00;9.20;;;9.80;84.60;;;;;;5021969;28;20037;-83
2022/12/08 01:41:23;;;;;;;9.65;8.85;;;9.80;84.60;;;;;;5021082;28;20026;-82
2022/12/08 01:44:07;;;;;;;9.60;8.90;;;9.80;84.60;;;;;;5020279;28;20021;-81
2022/12/08 01:46:35;;;;;;;10.18;9.38;;;9.80;84.60;;;;;;5016729;28;20050;-81
2022/12/08 01:49:14;;;;;;;9.50;8.80;;;9.80;84.60;;;;;;5014337;28;20036;-81
2022/12/08 01:51:56;;;;;;;9.65;8.95;;;9.80;84.60;;;;;;5011055;28;20026;-81
2022/12/08 01:54:24;;;;;;;9.65;8.95;;;9.80;84.60;;;;;;5010304;28;20037;-82
2022/12/08 01:57:02;;;;;;;9.65;8.95;;;9.80;84.60;;;;;;5018116;28;20029;-82
2022/12/08 01:59:31;;;;;;;9.85;9.02;;;9.80;84.60;;;;;;5020008;28;20041;-79
2022/12/08 02:01:57;;;;;;;9.93;9.20;;;9.80;84.60;;;;;;5019898;28;20121;-83
2022/12/08 02:04:23;;;;;;;9.55;8.75;;;9.80;84.60;;;;;;5020710;28;20045;-82
2022/12/08 02:06:50;;;;;;;10.05;9.35;;;9.80;84.60;;;;;;5020331;28;20072;-82
2022/12/08 02:09:16;;;;;;;10.02;9.25;;;9.80;84.60;;;;;;5019850;28;20022;-82
2022/12/08 02:11:41;;;;;;;10.02;9.23;;;9.80;84.60;;;;;;5019780;28;20500;-82
2022/12/08 02:14:09;;;;;;;9.48;8.77;;;9.80;84.60;;;;;;5019559;28;20026;-82
2022/12/08 02:16:47;;;;;;;10.15;9.43;;;9.80;84.60;;;;;;5019532;28;20425;-81
2022/12/08 02:19:40;;;;;;;10.20;9.40;;;9.80;84.60;;;;;;5019571;28;20417;-82
2022/12/08 02:22:06;;;;;;;9.80;9.10;;;9.80;84.60;;;;;;5019177;28;20026;-84
2022/12/08 02:24:55;;;;;;;9.65;8.95;;;9.80;84.60;;;;;;5018132;28;20522;-82
2022/12/08 02:27:32;;;;;;;9.45;8.75;;;9.80;84.50;;;;;;5017022;28;20437;-81
2022/12/08 02:30:17;;;;;;;9.75;9.05;;;9.80;84.50;;;;;;5017140;28;20030;-82
2022/12/08 02:33:07;;;;;;;10.18;9.48;;;9.80;84.60;;;;;;5016015;28;20030;-81
2022/12/08 02:35:55;;;;;;;10.27;9.48;;;9.80;84.60;;;;;;5017351;28;20490;-82
2022/12/08 02:38:51;;;;;;;9.98;9.27;;;9.80;84.50;;;;;;5000597;28;20026;-81
2022/12/08 02:41:22;;;;;;;9.95;9.25;;;9.80;84.70;;;;;;5013081;28;20029;-81
2022/12/08 02:43:59;;;;;;;9.85;9.07;;;9.80;84.60;;;;;;5010679;28;20108;-82
2022/12/08 02:46:31;;;;;;;9.98;9.20;;;9.80;84.50;;;;;;5016491;28;20030;-82
2022/12/08 02:48:58;;;;;;;10.00;9.30;;;9.90;84.60;;;;;;5015880;28;20524;-81
2022/12/08 02:51:23;;;;;;;9.75;9.05;;;9.80;84.30;;;;;;5015181;28;20397;-82
2022/12/08 02:53:49;;;;;;;9.90;9.20;;;9.90;84.30;;;;;;5016691;28;20022;-83
2022/12/08 02:56:34;;;;;;;9.77;9.07;;;9.90;84.30;;;;;;5017618;28;20030;-82
2022/12/08 02:59:17;;;;;;;9.73;9.02;;;9.90;84.20;;;;;;5016284;28;20065;-82
2022/12/08 03:01:58;;;;;;;9.32;8.63;;;9.90;84.10;;;;;;5005969;28;20038;-82
2022/12/08 03:04:29;;;;;;;9.87;9.07;;;9.90;84.10;;;;;;5004771;28;20030;-79
2022/12/08 03:07:03;;;;;;;9.00;8.30;;;9.90;84.10;;;;;;5017161;28;20026;-83
2022/12/08 03:09:55;;;;;;;9.70;8.95;;;9.90;84.10;;;;;;5020013;28;20088;-79
2022/12/08 03:13:05;;;;;;;9.30;8.60;;;9.90;84.10;;;;;;5010879;28;20026;-82
2022/12/08 03:15:31;;;;;;;9.98;9.18;;;9.90;84.10;;;;;;5003966;28;20019;-82
2022/12/08 03:17:59;;;;;;;9.57;8.82;;;9.90;84.20;;;;;;5014810;28;20448;-82
2022/12/08 03:20:28;;;;;;;9.15;8.45;;;9.90;84.30;;;;;;5017270;28;20053;-81
2022/12/08 03:22:57;;;;;;;9.57;8.77;;;9.90;84.50;;;;;;5008165;28;20018;-81
2022/12/08 03:25:26;;;;;;;9.60;8.90;;;9.90;84.50;;;;;;5016841;28;20036;-82
2022/12/08 03:27:52;;;;;;;9.68;8.98;;;9.90;84.60;;;;;;5019243;28;20501;-82
2022/12/08 03:30:18;;;;;;;9.50;8.80;;;9.80;84.60;;;;;;5015640;28;20022;-81
2022/12/08 03:32:53;;;;;;;9.60;8.90;;;9.80;84.70;;;;;;5007169;28;20034;-81
2022/12/08 03:35:23;;;;;;;10.18;9.48;;;9.80;84.70;;;;;;5008025;28;20048;-82
2022/12/08 03:37:48;;;;;;;9.70;9.00;;;9.80;84.70;;;;;;5016312;28;20026;-82
2022/12/08 03:40:18;;;;;;;10.25;9.45;;;9.80;84.70;;;;;;5012202;28;20536;-82
2022/12/08 03:42:43;;;;;;;9.82;9.02;;;9.80;84.70;;;;;;5002112;28;20501;-81
2022/12/08 03:45:09;;;;;;;9.57;8.88;;;9.80;84.80;;;;;;5013377;28;20059;-81
2022/12/08 03:47:35;;;;;;;9.38;8.65;;;9.80;84.80;;;;;;5010464;28;20057;-81
2022/12/08 03:50:01;;;;;;;9.77;9.00;;;9.80;84.80;;;;;;4997415;28;20023;-81
2022/12/08 03:52:26;;;;;;;9.68;8.98;;;9.80;84.80;;;;;;5013136;28;20099;-82
2022/12/08 03:54:52;;;;;;;10.30;9.50;;;9.80;84.80;;;;;;5018965;28;20048;-82
2022/12/08 03:57:17;;;;;;;10.30;9.50;;;9.80;84.90;;;;;;5018670;28;20038;-82
2022/12/08 03:59:43;;;;;;;10.63;9.82;;;9.80;84.80;;;;;;5008378;28;20033;-82
2022/12/08 04:02:08;;;;;;;10.57;9.77;;;9.80;84.90;;;;;;5019148;28;20034;-82
2022/12/08 04:04:34;;;;;;;10.18;9.48;;;9.80;84.90;;;;;;5014492;28;20086;-83
2022/12/08 04:06:59;;;;;;;9.85;9.15;;;9.80;85.00;;;;;;5019000;28;20022;-82
2022/12/08 04:09:25;;;;;;;9.95;9.15;;;9.80;84.90;;;;;;5015937;28;20042;-82
2022/12/08 04:11:50;;;;;;;10.07;9.38;;;9.80;84.90;;;;;;5017338;28;20037;-83
2022/12/08 04:14:16;;;;;;;9.88;9.10;;;9.80;84.90;;;;;;5011895;28;20027;-81
2022/12/08 04:16:41;;;;;;;10.20;9.40;;;9.80;84.90;;;;;;5001371;28;20037;-82
2022/12/08 04:19:07;;;;;;;9.82;9.13;;;9.80;84.90;;;;;;5015215;28;20022;-82
2022/12/08 04:21:33;;;;;;;9.88;9.07;;;9.80;84.90;;;;;;5003621;28;20075;-82
2022/12/08 04:23:59;;;;;;;10.35;9.63;;;9.70;84.90;;;;;;5017692;28;20033;-81
2022/12/08 04:26:24;;;;;;;10.15;9.45;;;9.80;84.90;;;;;;5018253;28;20029;-82
2022/12/08 04:28:50;;;;;;;9.88;9.18;;;9.80;84.90;;;;;;5016343;28;20375;-82
2022/12/08 04:31:15;;;;;;;9.82;9.13;;;9.80;84.90;;;;;;5007959;28;20032;-79
2022/12/08 04:33:41;;;;;;;10.10;9.40;;;9.80;85.00;;;;;;5017224;28;20032;-81
2022/12/08 04:36:07;;;;;;;10.00;9.20;;;9.80;84.90;;;;;;5016297;28;20505;-83
2022/12/08 04:38:33;;;;;;;9.60;8.90;;;9.80;84.90;;;;;;5014971;28;20091;-82
2022/12/08 04:40:59;;;;;;;9.95;9.15;;;9.80;84.90;;;;;;5007112;28;20477;-82
2022/12/08 04:43:25;;;;;;;10.30;9.52;;;9.80;84.90;;;;;;4994454;28;20030;-82
2022/12/08 04:45:50;;;;;;;10.30;9.50;;;9.80;84.90;;;;;;4996166;28;20022;-82
2022/12/08 04:48:16;;;;;;;9.85;9.15;;;9.70;84.90;;;;;;5011979;28;20018;-80
2022/12/08 04:50:43;;;;;;;9.95;9.25;;;9.80;84.90;;;;;;4996485;28;20018;-81
2022/12/08 04:53:10;;;;;;;9.80;9.10;;;9.80;84.90;;;;;;5013328;28;20548;-83
2022/12/08 04:55:42;;;;;;;9.90;9.20;;;9.70;84.80;;;;;;5014151;28;20037;-79
2022/12/08 04:58:11;;;;;;;10.02;9.23;;;9.70;84.80;;;;;;5015408;28;20037;-82
2022/12/08 05:00:37;;;;;;;9.60;8.90;;;9.80;84.90;;;;;;5001244;28;20022;-82
2022/12/08 05:03:02;;;;;;;9.68;8.95;;;9.80;84.90;;;;;;5013508;28;20076;-81
2022/12/08 05:05:28;;;;;;;10.18;9.48;;;9.80;84.90;;;;;;5012703;28;20509;-82
2022/12/08 05:07:53;;;;;;;9.73;9.02;;;9.80;84.90;;;;;;5013996;28;20026;-82
2022/12/08 05:10:19;;;;;;;10.43;9.63;;;9.80;84.90;;;;;;5012736;28;20491;-81
2022/12/08 05:12:44;;;;;;;10.32;9.52;;;9.70;84.90;;;;;;5009538;28;20018;-82
2022/12/08 05:15:10;;;;;;;10.10;9.35;;;9.80;84.90;;;;;;4998119;28;20038;-81
2022/12/08 05:17:35;;;;;;;10.05;9.27;;;9.80;84.90;;;;;;5013797;28;20032;-81
2022/12/08 05:20:01;;;;;;;9.98;9.27;;;9.80;84.90;;;;;;5013622;28;20116;-82
2022/12/08 05:22:26;;;;;;;10.13;9.43;;;9.80;84.90;;;;;;5012711;28;20034;-81
2022/12/08 05:24:52;;;;;;;10.10;9.30;;;9.80;84.90;;;;;;5012869;28;20049;-82
2022/12/08 05:27:18;;;;;;;10.20;9.40;;;9.80;84.90;;;;;;5027958;28;20034;-79
2022/12/08 05:29:43;;;;;;;10.57;9.77;;;9.80;84.90;;;;;;5018028;28;20029;-80
2022/12/08 05:32:09;;;;;;;9.60;8.90;;;9.80;84.90;;;;;;5013679;28;20030;-80
2022/12/08 05:34:34;;;;;;;10.70;9.90;;;9.80;84.90;;;;;;5011461;28;20058;-81
2022/12/08 05:37:00;;;;;;;10.10;9.32;;;9.80;84.90;;;;;;5016579;28;20026;-81
2022/12/08 05:39:25;;;;;;;10.38;9.57;;;9.80;84.90;;;;;;5007591;28;20378;-80
2022/12/08 05:41:51;;;;;;;9.93;9.20;;;9.80;84.90;;;;;;5005976;28;20050;-80
2022/12/08 05:44:16;;;;;;;9.90;9.20;;;9.80;84.90;;;;;;5006139;28;20018;-82
2022/12/08 05:46:42;;;;;;;9.95;9.25;;;9.80;84.90;;;;;;5010064;28;20022;-82
2022/12/08 05:49:07;;;;;;;9.90;9.20;;;9.80;84.90;;;;;;5005078;28;20039;-82
2022/12/08 05:51:33;;;;;;;9.65;8.85;;;9.80;84.90;;;;;;5014755;28;20069;-82
2022/12/08 05:53:59;;;;;;;9.93;9.23;;;9.80;84.90;;;;;;5015332;28;20034;-83
2022/12/08 05:56:24;;;;;;;9.73;9.02;;;9.80;84.90;;;;;;5014242;28;20041;-81
2022/12/08 05:58:50;;;;;;;9.98;9.20;;;9.80;84.90;;;;;;5029558;28;20026;-82
2022/12/08 06:01:27;;;;;;;9.90;9.20;;;9.80;84.90;;;;;;5014539;28;20471;-83
2022/12/08 06:03:53;;;;;;;10.80;10.00;;;9.80;84.90;;;;;;5004909;28;20030;-83
2022/12/08 06:06:20;;;;;;;10.40;9.60;;;9.80;84.90;;;;;;5017966;28;20029;-83
2022/12/08 06:08:46;;;;;;;10.20;9.40;;;9.80;84.80;;;;;;4999080;28;20023;-81
2022/12/08 06:11:27;;;;;;;10.10;9.30;;;9.80;84.90;;;;;;5009341;28;20041;-81
2022/12/08 06:13:54;;;;;;;9.82;9.13;;;9.80;84.90;;;;;;5015660;28;20030;-82
2022/12/08 06:16:20;;;;;;;10.07;9.38;;;9.80;84.90;;;;;;5017204;28;20498;-83
2022/12/08 06:28:59;;;;;;;9.93;9.13;;;9.80;84.70;;;;;;5033086;28;20055;-81
2022/12/08 06:31:26;;;;;;;9.82;9.02;;;9.80;84.60;;;;;;5036367;28;20159;-77
2022/12/08 06:33:53;;;;;;;9.68;8.98;;;9.90;84.60;;;;;;5052724;28;20098;-81
2022/12/08 06:36:21;;;;;;;9.55;8.85;;;9.80;84.50;;;;;;5042052;28;20021;-81
2022/12/08 06:38:48;;;;;;;9.30;8.50;;;9.90;84.50;;;;;;5041044;28;20044;-82
2022/12/08 06:41:13;;;;;;;10.20;9.40;;;9.80;84.30;;;;;;5040304;28;20399;-82
2022/12/08 06:43:40;;;;;;;10.13;9.32;;;9.90;84.50;;;;;;5037678;28;20112;-84
2022/12/08 06:46:07;;;;;;;10.15;9.35;;;9.90;84.40;;;;;;5037016;28;20025;-82
2022/12/08 06:48:33;;;;;;;9.88;9.10;;;9.80;84.40;;;;;;5038224;28;20056;-83
2022/12/08 06:51:12;;;;;;;10.52;9.73;;;9.80;84.50;;;;;;5030637;28;20077;-82
2022/12/08 06:53:39;;;;;;;10.05;9.25;;;9.80;84.50;;;;;;5038330;28;20037;-82
2022/12/08 06:56:05;;;;;;;9.63;8.93;;;9.80;84.60;;;;;;5039427;28;20052;-83
2022/12/08 06:58:30;;;;;;;10.32;9.52;;;9.80;84.70;;;;;;5041175;28;20515;-83
2022/12/08 07:00:56;;;;;;;10.02;9.23;;;9.80;84.70;;;;;;5031462;28;20029;-83
2022/12/08 07:03:21;;;;;;;10.07;9.27;;;9.80;84.80;;;;;;5035761;28;20029;-83
2022/12/08 07:05:47;;;;;;;10.20;9.40;;;9.80;84.80;;;;;;5023620;28;20061;-83
2022/12/08 07:08:13;;;;;;;9.63;8.93;;;9.80;84.80;;;;;;5059699;28;20380;-82
2022/12/08 07:10:38;;;;;;;10.07;9.27;;;9.80;85.40;;;;;;5038173;28;20029;-82
2022/12/08 07:13:04;;;;;;;10.18;9.38;;;9.70;84.80;;;;;;5028983;28;20404;-81
2022/12/08 07:15:30;;;;;;;10.00;9.20;;;9.70;84.90;;;;;;5026709;28;20022;-82
2022/12/08 07:17:55;;;;;;;9.80;9.10;;;9.70;84.90;;;;;;5041532;28;20024;-82
2022/12/08 07:20:21;;;;;;;10.15;9.35;;;9.70;84.90;;;;;;5040874;28;20029;-81
2022/12/08 07:22:53;;;;;;;10.00;9.20;;;9.80;85.00;;;;;;5044423;28;20443;-82
2022/12/08 07:25:19;;;;;;;10.02;9.23;;;9.70;84.90;;;;;;5038947;28;20060;-81
2022/12/08 07:27:44;;;;;;;10.23;9.43;;;9.70;84.90;;;;;;5034291;28;20025;-82
2022/12/08 07:30:11;;;;;;;10.15;9.35;;;9.80;85.00;;;;;;5038607;28;20055;-82
2022/12/08 07:32:38;;;;;;;10.40;9.60;;;9.70;84.90;;;;;;5045836;28;20052;-82
2022/12/08 07:35:05;;;;;;;10.60;9.80;;;9.70;85.00;;;;;;5036632;28;20022;-82
2022/12/08 07:37:32;;;;;;;10.40;9.70;;;9.70;85.00;;;;;;5041500;28;20081;-81
2022/12/08 07:39:58;;;;;;;10.20;9.40;;;9.70;85.00;;;;;;5057885;28;20112;-82
2022/12/08 07:42:23;;;;;;;10.10;9.30;;;9.70;85.00;;;;;;5049528;28;20084;-82
2022/12/08 07:44:49;;;;;;;10.60;9.80;;;9.70;85.00;;;;;;5053231;28;20381;-81
2022/12/08 07:47:14;;;;;;;10.57;9.77;;;9.70;85.00;;;;;;5021222;28;20397;-82
2022/12/08 07:49:40;;;;;;;10.18;9.38;;;9.70;85.00;;;;;;5037209;28;20073;-82
2022/12/08 07:52:05;;;;;;;10.80;10.00;;;9.70;85.00;;;;;;5041440;28;20031;-81
2022/12/08 07:54:31;;;;;;;10.07;9.27;;;9.70;85.00;;;;;;5039344;28;20029;-81
2022/12/08 07:56:57;;;;;;;9.90;9.13;;;9.70;85.00;;;;;;5056451;28;20033;-82
2022/12/08 07:59:22;;;;;;;10.52;9.73;;;9.70;85.00;;;;;;5053009;28;20068;-83
2022/12/08 08:01:50;;;;;;;10.63;9.82;;;9.70;85.00;;;;;;5034288;28;20044;-80
2022/12/08 08:04:15;;;;;;;10.23;9.43;;;9.70;85.00;;;;;;5020312;28;20045;-82
2022/12/08 08:06:41;;;;;;;10.23;9.43;;;9.70;85.50;;;;;;5036907;28;20036;-81
2022/12/08 08:09:08;;;;;;;10.18;9.38;;;9.70;85.00;;;;;;5056155;28;20110;-82
2022/12/08 08:11:34;;;;;;;9.90;9.20;;;9.70;85.10;;;;;;5032384;28;20515;-83
2022/12/08 08:14:00;;;;;;;9.95;9.25;;;9.70;85.00;;;;;;5055303;28;20025;-81
2022/12/08 08:16:26;;;;;;;10.00;9.20;;;9.70;85.00;;;;;;5029057;28;20040;-82
2022/12/08 08:18:51;;;;;;;10.60;9.80;;;9.80;85.00;;;;;;5036974;28;20025;-82
2022/12/08 08:21:19;;;;;;;10.43;9.63;;;9.70;85.00;;;;;;5034234;28;20025;-81
2022/12/08 08:23:44;;;;;;;10.35;9.55;;;9.70;84.90;;;;;;5034569;28;20067;-82
2022/12/08 08:26:10;;;;;;;10.07;9.32;;;9.70;85.00;;;;;;5040353;28;20017;-81
2022/12/08 08:28:35;;;;;;;10.27;9.48;;;9.70;84.90;;;;;;5054355;28;20032;-81
2022/12/08 08:31:01;;;;;;;9.98;9.25;;;9.70;85.00;;;;;;5037254;28;20024;-81
2022/12/08 08:33:27;;;;;;;10.07;9.27;;;9.70;85.00;;;;;;5026821;28;20029;-81
2022/12/08 08:35:53;;;;;;;10.55;9.75;;;9.70;85.00;;;;;;5049872;28;20044;-82
2022/12/08 08:38:19;;;;;;;10.45;9.65;;;9.70;84.90;;;;;;5037543;28;20021;-81
2022/12/08 08:40:45;;;;;;;10.48;9.68;;;9.70;84.90;;;;;;5048769;28;20025;-81
2022/12/08 08:43:27;;;;;;;10.80;10.00;;;9.70;84.90;;;;;;5039328;28;20116;-81
2022/12/08 08:45:57;;;;;;;10.88;10.07;;;9.70;84.80;;;;;;5045829;28;20036;-82
2022/12/08 08:48:24;;;;;;;10.48;9.68;;;9.70;84.80;;;;;;5048247;28;20029;-81
2022/12/08 08:50:49;;;;;;;10.30;9.50;;;9.80;84.90;;;;;;5054517;28;20021;-81
2022/12/08 08:53:15;;;;;;;10.60;9.80;;;9.70;84.80;;;;;;5037050;28;20021;-81
2022/12/08 08:55:40;;;;;;;10.25;9.45;;;9.70;84.80;;;;;;5035474;28;20025;-81
2022/12/08 08:58:06;;;;;;;10.13;9.35;;;9.70;84.80;;;;;;5048542;28;20429;-81
2022/12/08 09:00:31;;;;;;;10.50;9.70;;;9.70;84.80;;;;;;5054072;28;20544;-79
2022/12/08 09:02:57;;;;;;;10.40;9.60;;;9.70;84.80;;;;;;5037028;28;20111;-82
2022/12/08 09:05:22;;;;;;;10.30;9.50;;;9.70;84.80;;;;;;5044661;28;20034;-82
2022/12/08 09:07:48;;;;;;;10.88;10.07;;;9.70;84.80;;;;;;5051017;28;20468;-82
2022/12/08 09:10:14;;;;;;;10.57;9.75;;;9.70;84.90;;;;;;5036864;28;20036;-82
2022/12/08 09:12:39;;;;;;;10.65;9.85;;;9.80;84.80;;;;;;5042047;28;20378;-83
2022/12/08 09:15:05;;;;;;;10.45;9.65;;;9.70;84.80;;;;;;5047601;28;20044;-83
2022/12/08 09:17:31;;;;;;;10.48;9.68;;;9.80;84.80;;;;;;5038025;28;20033;-82
2022/12/08 09:19:56;;;;;;;11.02;10.18;;;9.70;84.80;;;;;;5039790;28;20029;-82
2022/12/08 09:22:22;;;;;;;10.82;10.02;;;9.80;84.80;;;;;;5043584;28;20033;-83
2022/12/08 09:24:48;;;;;;;10.48;9.68;;;9.70;84.70;;;;;;5045685;28;20022;-82
2022/12/08 09:27:13;;;;;;;10.80;10.00;;;9.80;84.80;;;;;;5058617;28;20025;-82
2022/12/08 09:29:39;;;;;;;10.90;10.10;;;9.80;84.80;;;;;;5058782;28;20434;-83
2022/12/08 09:32:04;;;;;;;10.45;9.65;;;9.70;85.20;;;;;;5053783;28;20439;-83
2022/12/08 09:34:30;;;;;;;11.32;10.52;;;9.80;84.80;;;;;;5032541;28;20554;-83
2022/12/08 09:36:56;;;;;;;10.55;9.75;;;9.80;84.80;;;;;;5057047;28;20029;-82
2022/12/08 09:39:23;;;;;;;10.90;10.10;;;9.80;84.70;;;;;;5042354;28;20064;-83
2022/12/08 09:41:52;;;;;;;10.45;9.65;;;9.80;84.70;;;;;;5046225;28;20033;-81
2022/12/08 09:44:56;;;;;;;11.00;10.20;;;9.80;84.70;;;;;;5035386;28;20037;-83
2022/12/08 09:48:03;;;;;;;10.27;9.57;;;9.80;84.70;;;;;;5040715;28;20112;-83
2022/12/08 09:50:32;;;;;;;10.63;9.82;;;9.80;84.70;;;;;;4962625;29;20047;-82
2022/12/08 09:53:07;;;;;;;10.75;9.75;;;9.80;84.80;;;;;;5022556;28;20128;-82
2022/12/08 09:55:45;;;;;;;10.70;9.90;;;9.80;84.70;;;;;;5053292;28;20028;-83
2022/12/08 09:58:44;;;;;;;10.13;9.40;;;9.80;84.60;;;;;;5063220;28;20401;-82
2022/12/08 10:01:10;;;;;;;10.75;9.95;;;9.80;84.50;;;;;;5040687;28;20025;-83
2022/12/08 10:03:36;;;;;;;10.80;10.00;;;9.80;84.40;;;;;;5034959;28;20037;-82
2022/12/08 10:06:20;;;;;;;10.27;9.48;;;9.80;84.40;;;;;;5029912;28;20036;-82
2022/12/08 10:08:53;;;;;;;10.50;9.70;;;9.80;84.30;;;;;;5037177;28;20025;-82
2022/12/08 10:11:30;;;;;;;11.00;10.15;;;9.80;84.30;;;;;;5055776;28;20082;-81
2022/12/08 10:14:06;;;;;;;10.10;9.30;;;9.90;84.40;;;;;;5049303;28;20111;-83
2022/12/08 10:16:40;;;;;;;10.35;9.55;;;9.80;84.30;;;;;;5053395;28;20032;-82
2022/12/08 10:19:21;;;;;;;10.30;9.50;;;9.80;84.30;;;;;;5035661;28;20030;-83
2022/12/08 10:21:47;;;;;;;9.93;9.13;;;9.80;84.30;;;;;;5047038;28;20041;-82
2022/12/08 10:24:33;;;;;;;10.32;9.52;;;9.80;84.30;;;;;;5047955;28;20385;-82
2022/12/08 10:27:00;;;;;;;10.70;9.90;;;9.90;84.30;;;;;;5046583;28;20013;-80
2022/12/08 10:29:26;;;;;;;10.30;9.50;;;9.80;84.30;;;;;;5058943;28;20103;-83
2022/12/08 10:31:51;;;;;;;10.48;9.68;;;9.80;84.40;;;;;;5056522;28;20064;-82
2022/12/08 10:34:22;;;;;;;10.15;9.35;;;9.80;84.40;;;;;;5050572;28;20558;-83
2022/12/08 10:36:53;;;;;;;10.57;9.77;;;9.80;84.50;;;;;;5052209;28;20021;-81
2022/12/08 10:39:31;;;;;;;9.73;9.02;;;9.80;84.60;;;;;;5056504;28;20400;-82
2022/12/08 10:42:07;;;;;;;10.68;9.88;;;9.80;84.60;;;;;;5039206;28;20408;-82
2022/12/08 10:44:46;;;;;;;10.38;9.57;;;9.80;85.10;;;;;;5050692;28;20500;-83
2022/12/08 10:47:12;;;;;;;10.50;9.70;;;9.80;84.70;;;;;;5037554;28;20021;-83
2022/12/08 10:49:38;;;;;;;10.35;9.55;;;9.80;84.70;;;;;;5035327;28;20025;-78
2022/12/08 10:52:20;;;;;;;10.00;9.20;;;9.80;84.80;;;;;;5048768;28;20104;-81
2022/12/08 10:54:51;;;;;;;10.50;9.70;;;9.80;84.80;;;;;;5040727;28;20084;-82
2022/12/08 10:57:22;;;;;;;10.23;9.43;;;9.70;84.80;;;;;;5041663;28;20060;-81
2022/12/08 10:59:48;;;;;;;10.30;9.50;;;9.70;84.80;;;;;;5032033;28;20381;-82
2022/12/08 11:02:19;;;;;;;10.02;9.23;;;9.70;84.80;;;;;;5031127;28;20163;-79
2022/12/08 11:04:45;;;;;;;10.90;10.10;;;9.70;84.90;;;;;;5052204;28;20029;-81
2022/12/08 11:07:19;;;;;;;10.38;9.57;;;9.70;84.90;;;;;;5041833;28;20040;-83
2022/12/08 11:09:49;;;;;;;10.45;9.55;;;9.70;84.90;;;;;;5039858;28;20107;-82
2022/12/08 11:12:16;;;;;;;10.20;9.40;;;9.70;84.90;;;;;;5055121;28;20032;-81
2022/12/08 11:14:41;;;;;;;10.55;9.75;;;9.70;84.90;;;;;;5040153;28;20046;-82
2022/12/08 11:17:08;;;;;;;10.65;9.85;;;9.70;84.90;;;;;;5055960;28;20033;-80
2022/12/08 11:19:39;;;;;;;10.73;9.93;;;9.70;84.90;;;;;;5051473;28;20032;-82
2022/12/08 11:22:25;;;;;;;10.40;9.60;;;9.70;84.90;;;;;;5048093;28;20025;-81
2022/12/08 11:25:10;;;;;;;10.50;9.70;;;9.70;85.40;;;;;;5047909;28;20021;-80
2022/12/08 11:27:50;;;;;;;10.43;9.63;;;9.70;84.90;;;;;;5034508;28;20022;-79
2022/12/08 11:30:17;;;;;;;10.90;10.10;;;9.70;84.90;;;;;;5048796;28;20017;-82
2022/12/08 11:32:45;;;;;;;10.50;9.70;;;9.70;84.90;;;;;;5034596;28;20026;-81
2022/12/08 11:35:33;;;;;;;11.02;10.13;;;9.70;85.00;;;;;;5050933;28;20028;-81
2022/12/08 11:38:11;;;;;;;10.23;9.43;;;9.70;85.00;;;;;;5050377;28;20025;-80
2022/12/08 11:40:41;;;;;;;9.85;9.05;;;9.70;85.00;;;;;;5050201;28;20029;-81
2022/12/08 11:43:18;;;;;;;10.18;9.38;;;9.80;85.10;;;;;;5048195;28;20050;-81
2022/12/08 11:45:45;;;;;;;10.43;9.63;;;9.70;85.00;;;;;;5064652;28;20052;-81
2022/12/08 11:48:26;;;;;;;10.40;9.50;;;9.70;85.00;;;;;;5034452;28;20024;-82
2022/12/08 11:50:57;;;;;;;10.13;9.32;;;9.70;85.00;;;;;;5037240;28;20044;-82
2022/12/08 11:53:40;;;;;;;9.77;9.02;;;9.70;85.00;;;;;;5036186;28;20032;-81
2022/12/08 11:56:20;;;;;;;10.25;9.50;;;9.70;85.00;;;;;;5053744;28;20017;-81
2022/12/08 11:58:59;;;;;;;10.25;9.45;;;9.70;85.00;;;;;;5043986;28;20392;-81
2022/12/08 12:01:25;;;;;;;10.27;9.48;;;9.70;85.00;;;;;;5052616;28;20031;-81
2022/12/08 12:04:28;;;;;;;10.40;9.60;;;9.70;85.00;;;;;;5045191;28;20639;-80
2022/12/08 12:06:56;;;;;;;10.35;9.55;;;9.70;85.00;;;;;;4969323;28;20507;-81
2022/12/08 12:09:37;;;;;;;10.52;9.73;;;9.70;84.90;;;;;;5025332;28;20071;-82
2022/12/08 12:12:26;;;;;;;10.40;9.60;;;9.80;85.00;;;;;;5046906;28;20408;-83
2022/12/08 12:15:22;;;;;;;10.10;9.30;;;9.80;85.00;;;;;;5038788;28;20025;-81
2022/12/08 12:18:12;;;;;;;10.65;9.85;;;9.80;85.00;;;;;;5033325;28;20030;-81
2022/12/08 12:20:54;;;;;;;10.47;9.57;;;9.70;85.00;;;;;;5036869;28;20430;-83
2022/12/08 12:23:27;;;;;;;10.68;9.88;;;9.70;84.90;;;;;;5045470;28;20488;-82
2022/12/08 12:26:00;;;;;;;10.18;9.38;;;9.80;85.00;;;;;;5041087;28;20029;-84
2022/12/08 12:28:29;;;;;;;11.00;10.20;;;9.70;84.90;;;;;;5038437;28;20084;-79
2022/12/08 12:31:04;;;;;;;10.52;9.73;;;9.80;85.00;;;;;;5036727;28;20064;-82
2022/12/08 12:33:31;;;;;;;10.30;9.50;;;9.70;84.90;;;;;;5050423;28;20051;-81
2022/12/08 12:36:00;;;;;;;10.15;9.35;;;9.70;84.90;;;;;;5054619;28;20068;-82
2022/12/08 12:41:23;;;;;;;10.98;10.07;;;9.70;84.90;;;;;;5043391;28;20039;-83
2022/12/08 12:44:17;;;;;;;10.77;9.98;;;9.70;84.90;;;;;;5056064;28;20044;-85
2022/12/08 12:46:47;;;;;;;12.30;11.13;;;9.80;84.90;;;;;;5049329;28;20708;-82
2022/12/08 12:49:39;;;;;;;12.45;11.23;;;9.70;84.30;;;;;;5033083;28;20037;-81
2022/12/08 12:52:19;;;;;;;13.07;11.25;;;9.80;84.90;;;;;;5036984;28;20021;-82
2022/12/08 12:54:48;;;;;;;11.57;10.63;;;9.70;84.20;;;;;;5041646;28;20032;-82
2022/12/08 12:57:21;;;;;;;11.48;10.30;;;9.80;84.40;;;;;;5054430;28;20025;-82
2022/12/08 13:00:16;;;;;;;12.05;10.02;;;9.80;84.60;;;;;;5022800;28;20025;-83
2022/12/08 13:02:50;;;;;;;11.20;10.02;;;9.80;85.10;;;;;;5033246;28;20108;-83
2022/12/08 13:05:21;;;;;;;11.35;9.60;;;9.90;85.10;;;;;;5037451;28;20032;-82
2022/12/08 13:07:59;;;;;;;10.40;9.40;;;10.00;85.00;;;;;;5052047;28;20084;-81
2022/12/08 13:10:32;;;;;;;10.30;9.25;;;10.00;85.20;;;;;;5053024;28;20031;-82
2022/12/08 13:13:17;;;;;;;13.32;10.18;;;10.10;85.40;;;;;;5052836;28;20037;-82
2022/12/08 13:15:53;;;;;;;11.30;10.30;;;10.10;85.40;;;;;;5059234;28;20029;-82
2022/12/08 13:18:23;;;;;;;11.40;10.32;;;10.20;85.70;;;;;;5044654;28;20029;-81
2022/12/08 13:21:09;;;;;;;12.20;10.93;;;10.20;85.70;;;;;;5053859;28;20029;-81
2022/12/08 13:23:49;;;;;;;11.70;10.57;;;10.30;86.00;;;;;;5035144;28;20036;-83